sensor_id;sensor_type;location;lat;lon;timestamp;P1;durP1;ratioP1;P2;durP2;ratioP2
14241;SDS011;7205;50.864;12.766;2023-09-07T00:00:13;5.33;;;4.97;;
14241;SDS011;7205;50.864;12.766;2023-09-07T00:02:40;5.43;;;4.90;;
14241;SDS011;7205;50.864;12.766;2023-09-07T00:05:07;5.80;;;4.60;;
14241;SDS011;7205;50.864;12.766;2023-09-07T00:07:35;5.03;;;4.63;;
14241;SDS011;7205;50.864;12.766;2023-09-07T00:10:02;5.50;;;5.00;;
14241;SDS011;7205;50.864;12.766;2023-09-07T00:12:31;5.87;;;5.00;;
14241;SDS011;7205;50.864;12.766;2023-09-07T00:14:58;5.93;;;5.30;;
14241;SDS011;7205;50.864;12.766;2023-09-07T00:17:25;4.97;;;4.63;;
14241;SDS011;7205;50.864;12.766;2023-09-07T00:19:52;5.83;;;4.70;;
14241;SDS011;7205;50.864;12.766;2023-09-07T00:22:22;5.70;;;4.83;;
14241;SDS011;7205;50.864;12.766;2023-09-07T00:24:48;4.97;;;4.63;;
14241;SDS011;7205;50.864;12.766;2023-09-07T00:27:16;5.30;;;4.90;;
14241;SDS011;7205;50.864;12.766;2023-09-07T00:29:44;5.67;;;4.77;;
14241;SDS011;7205;50.864;12.766;2023-09-07T00:32:11;5.37;;;4.90;;
14241;SDS011;7205;50.864;12.766;2023-09-07T00:34:38;6.97;;;5.00;;
14241;SDS011;7205;50.864;12.766;2023-09-07T00:37:05;4.83;;;4.53;;
14241;SDS011;7205;50.864;12.766;2023-09-07T00:39:31;7.97;;;5.10;;
14241;SDS011;7205;50.864;12.766;2023-09-07T00:41:58;5.07;;;4.67;;
14241;SDS011;7205;50.864;12.766;2023-09-07T00:44:25;5.03;;;4.53;;
14241;SDS011;7205;50.864;12.766;2023-09-07T00:46:53;4.97;;;4.67;;
14241;SDS011;7205;50.864;12.766;2023-09-07T00:49:20;5.20;;;4.80;;
14241;SDS011;7205;50.864;12.766;2023-09-07T00:51:47;4.67;;;4.23;;
14241;SDS011;7205;50.864;12.766;2023-09-07T00:54:14;5.47;;;5.07;;
14241;SDS011;7205;50.864;12.766;2023-09-07T00:56:41;5.30;;;4.80;;
14241;SDS011;7205;50.864;12.766;2023-09-07T00:59:08;5.30;;;4.80;;
14241;SDS011;7205;50.864;12.766;2023-09-07T01:01:36;5.50;;;4.63;;
14241;SDS011;7205;50.864;12.766;2023-09-07T01:04:04;5.30;;;4.90;;
14241;SDS011;7205;50.864;12.766;2023-09-07T01:06:32;5.70;;;5.20;;
14241;SDS011;7205;50.864;12.766;2023-09-07T01:09:06;5.30;;;4.80;;
14241;SDS011;7205;50.864;12.766;2023-09-07T01:11:39;4.70;;;4.30;;
14241;SDS011;7205;50.864;12.766;2023-09-07T01:14:05;5.50;;;5.10;;
14241;SDS011;7205;50.864;12.766;2023-09-07T01:16:32;4.97;;;4.57;;
14241;SDS011;7205;50.864;12.766;2023-09-07T01:19:01;5.70;;;4.73;;
14241;SDS011;7205;50.864;12.766;2023-09-07T01:21:33;5.83;;;4.87;;
14241;SDS011;7205;50.864;12.766;2023-09-07T01:24:01;5.27;;;4.77;;
14241;SDS011;7205;50.864;12.766;2023-09-07T01:26:31;4.83;;;4.43;;
14241;SDS011;7205;50.864;12.766;2023-09-07T01:28:58;4.77;;;4.47;;
14241;SDS011;7205;50.864;12.766;2023-09-07T01:31:24;6.53;;;4.93;;
14241;SDS011;7205;50.864;12.766;2023-09-07T01:33:51;4.87;;;4.47;;
14241;SDS011;7205;50.864;12.766;2023-09-07T01:36:18;5.67;;;4.80;;
14241;SDS011;7205;50.864;12.766;2023-09-07T01:38:46;8.73;;;5.07;;
14241;SDS011;7205;50.864;12.766;2023-09-07T01:41:13;5.23;;;4.73;;
14241;SDS011;7205;50.864;12.766;2023-09-07T01:43:40;5.03;;;4.63;;
14241;SDS011;7205;50.864;12.766;2023-09-07T01:46:06;4.90;;;4.50;;
14241;SDS011;7205;50.864;12.766;2023-09-07T01:48:34;5.17;;;4.57;;
14241;SDS011;7205;50.864;12.766;2023-09-07T01:51:02;7.37;;;4.60;;
14241;SDS011;7205;50.864;12.766;2023-09-07T01:53:29;4.67;;;4.37;;
14241;SDS011;7205;50.864;12.766;2023-09-07T01:55:57;5.17;;;4.77;;
14241;SDS011;7205;50.864;12.766;2023-09-07T01:58:24;5.70;;;4.80;;
14241;SDS011;7205;50.864;12.766;2023-09-07T02:00:52;6.33;;;4.90;;
14241;SDS011;7205;50.864;12.766;2023-09-07T02:03:22;4.70;;;4.27;;
14241;SDS011;7205;50.864;12.766;2023-09-07T02:05:50;4.97;;;4.20;;
14241;SDS011;7205;50.864;12.766;2023-09-07T02:08:17;4.67;;;3.63;;
14241;SDS011;7205;50.864;12.766;2023-09-07T02:10:43;6.57;;;4.17;;
14241;SDS011;7205;50.864;12.766;2023-09-07T02:13:11;5.00;;;4.30;;
14241;SDS011;7205;50.864;12.766;2023-09-07T02:15:38;4.97;;;4.33;;
14241;SDS011;7205;50.864;12.766;2023-09-07T02:18:06;5.03;;;4.57;;
14241;SDS011;7205;50.864;12.766;2023-09-07T02:20:33;4.97;;;4.57;;
14241;SDS011;7205;50.864;12.766;2023-09-07T02:23:00;4.17;;;3.97;;
14241;SDS011;7205;50.864;12.766;2023-09-07T02:25:27;4.33;;;4.03;;
14241;SDS011;7205;50.864;12.766;2023-09-07T02:27:56;4.90;;;4.30;;
14241;SDS011;7205;50.864;12.766;2023-09-07T02:30:25;4.83;;;4.30;;
14241;SDS011;7205;50.864;12.766;2023-09-07T02:32:52;4.63;;;4.23;;
14241;SDS011;7205;50.864;12.766;2023-09-07T02:35:18;4.83;;;4.33;;
14241;SDS011;7205;50.864;12.766;2023-09-07T02:37:45;4.53;;;4.20;;
14241;SDS011;7205;50.864;12.766;2023-09-07T02:40:12;4.60;;;4.30;;
14241;SDS011;7205;50.864;12.766;2023-09-07T02:42:41;5.20;;;4.00;;
14241;SDS011;7205;50.864;12.766;2023-09-07T02:45:10;4.83;;;4.27;;
14241;SDS011;7205;50.864;12.766;2023-09-07T02:47:39;4.60;;;4.20;;
14241;SDS011;7205;50.864;12.766;2023-09-07T02:50:06;6.33;;;4.30;;
14241;SDS011;7205;50.864;12.766;2023-09-07T02:52:33;7.60;;;4.57;;
14241;SDS011;7205;50.864;12.766;2023-09-07T02:55:00;4.13;;;3.83;;
14241;SDS011;7205;50.864;12.766;2023-09-07T02:57:27;5.67;;;4.47;;
14241;SDS011;7205;50.864;12.766;2023-09-07T02:59:54;5.37;;;4.23;;
14241;SDS011;7205;50.864;12.766;2023-09-07T03:02:21;3.90;;;3.70;;
14241;SDS011;7205;50.864;12.766;2023-09-07T03:04:54;7.57;;;4.10;;
14241;SDS011;7205;50.864;12.766;2023-09-07T03:07:24;3.90;;;3.70;;
14241;SDS011;7205;50.864;12.766;2023-09-07T03:09:51;6.63;;;3.90;;
14241;SDS011;7205;50.864;12.766;2023-09-07T03:12:18;4.30;;;4.00;;
14241;SDS011;7205;50.864;12.766;2023-09-07T03:14:45;4.40;;;4.10;;
14241;SDS011;7205;50.864;12.766;2023-09-07T03:17:14;6.17;;;4.10;;
14241;SDS011;7205;50.864;12.766;2023-09-07T03:19:42;3.80;;;3.53;;
14241;SDS011;7205;50.864;12.766;2023-09-07T03:22:10;5.43;;;3.77;;
14241;SDS011;7205;50.864;12.766;2023-09-07T03:24:37;3.80;;;3.60;;
14241;SDS011;7205;50.864;12.766;2023-09-07T03:27:04;4.27;;;3.97;;
14241;SDS011;7205;50.864;12.766;2023-09-07T03:29:31;4.10;;;3.40;;
14241;SDS011;7205;50.864;12.766;2023-09-07T03:31:59;4.90;;;4.10;;
14241;SDS011;7205;50.864;12.766;2023-09-07T03:34:26;4.50;;;3.60;;
14241;SDS011;7205;50.864;12.766;2023-09-07T03:36:54;4.00;;;3.63;;
14241;SDS011;7205;50.864;12.766;2023-09-07T03:39:22;4.90;;;3.77;;
14241;SDS011;7205;50.864;12.766;2023-09-07T03:41:49;3.63;;;3.43;;
14241;SDS011;7205;50.864;12.766;2023-09-07T03:44:17;5.57;;;3.43;;
14241;SDS011;7205;50.864;12.766;2023-09-07T03:46:44;3.80;;;3.47;;
14241;SDS011;7205;50.864;12.766;2023-09-07T03:49:11;3.70;;;3.40;;
14241;SDS011;7205;50.864;12.766;2023-09-07T03:51:38;4.00;;;3.70;;
14241;SDS011;7205;50.864;12.766;2023-09-07T03:54:05;4.23;;;3.93;;
14241;SDS011;7205;50.864;12.766;2023-09-07T03:56:33;4.50;;;3.70;;
14241;SDS011;7205;50.864;12.766;2023-09-07T03:59:00;3.87;;;3.57;;
14241;SDS011;7205;50.864;12.766;2023-09-07T04:01:27;4.20;;;3.80;;
14241;SDS011;7205;50.864;12.766;2023-09-07T04:03:53;3.90;;;3.60;;
14241;SDS011;7205;50.864;12.766;2023-09-07T04:06:20;3.97;;;3.67;;
14241;SDS011;7205;50.864;12.766;2023-09-07T04:08:49;3.80;;;3.60;;
14241;SDS011;7205;50.864;12.766;2023-09-07T04:11:15;5.53;;;3.60;;
14241;SDS011;7205;50.864;12.766;2023-09-07T04:13:44;4.67;;;3.93;;
14241;SDS011;7205;50.864;12.766;2023-09-07T04:16:10;4.27;;;3.63;;
14241;SDS011;7205;50.864;12.766;2023-09-07T04:18:37;4.93;;;3.40;;
14241;SDS011;7205;50.864;12.766;2023-09-07T04:21:04;4.10;;;3.80;;
14241;SDS011;7205;50.864;12.766;2023-09-07T04:23:32;4.23;;;3.80;;
14241;SDS011;7205;50.864;12.766;2023-09-07T04:26:04;5.10;;;4.30;;
14241;SDS011;7205;50.864;12.766;2023-09-07T04:28:32;4.83;;;3.93;;
14241;SDS011;7205;50.864;12.766;2023-09-07T04:31:00;4.63;;;4.23;;
14241;SDS011;7205;50.864;12.766;2023-09-07T04:33:29;4.70;;;4.07;;
14241;SDS011;7205;50.864;12.766;2023-09-07T04:35:56;4.20;;;3.87;;
14241;SDS011;7205;50.864;12.766;2023-09-07T04:38:23;5.53;;;4.23;;
14241;SDS011;7205;50.864;12.766;2023-09-07T04:40:50;7.20;;;4.07;;
14241;SDS011;7205;50.864;12.766;2023-09-07T04:43:16;4.57;;;4.10;;
14241;SDS011;7205;50.864;12.766;2023-09-07T04:45:46;4.40;;;4.00;;
14241;SDS011;7205;50.864;12.766;2023-09-07T04:48:15;6.33;;;4.37;;
14241;SDS011;7205;50.864;12.766;2023-09-07T04:50:41;4.93;;;4.00;;
14241;SDS011;7205;50.864;12.766;2023-09-07T04:53:08;4.27;;;3.97;;
14241;SDS011;7205;50.864;12.766;2023-09-07T04:55:37;4.97;;;4.50;;
14241;SDS011;7205;50.864;12.766;2023-09-07T04:58:04;4.03;;;3.43;;
14241;SDS011;7205;50.864;12.766;2023-09-07T05:00:30;5.03;;;4.53;;
14241;SDS011;7205;50.864;12.766;2023-09-07T05:02:57;6.50;;;4.43;;
14241;SDS011;7205;50.864;12.766;2023-09-07T05:05:25;4.80;;;4.40;;
14241;SDS011;7205;50.864;12.766;2023-09-07T05:07:52;6.63;;;4.57;;
14241;SDS011;7205;50.864;12.766;2023-09-07T05:10:19;4.83;;;4.23;;
14241;SDS011;7205;50.864;12.766;2023-09-07T05:12:46;4.47;;;4.17;;
14241;SDS011;7205;50.864;12.766;2023-09-07T05:15:13;5.23;;;4.53;;
14241;SDS011;7205;50.864;12.766;2023-09-07T05:17:42;4.93;;;4.53;;
14241;SDS011;7205;50.864;12.766;2023-09-07T05:20:10;6.17;;;4.87;;
14241;SDS011;7205;50.864;12.766;2023-09-07T05:22:39;4.53;;;4.10;;
14241;SDS011;7205;50.864;12.766;2023-09-07T05:25:07;5.07;;;4.60;;
14241;SDS011;7205;50.864;12.766;2023-09-07T05:27:34;11.00;;;4.73;;
14241;SDS011;7205;50.864;12.766;2023-09-07T05:30:01;4.53;;;4.20;;
14241;SDS011;7205;50.864;12.766;2023-09-07T05:32:28;4.63;;;4.27;;
14241;SDS011;7205;50.864;12.766;2023-09-07T05:34:55;8.77;;;4.33;;
14241;SDS011;7205;50.864;12.766;2023-09-07T05:37:22;6.27;;;4.30;;
14241;SDS011;7205;50.864;12.766;2023-09-07T05:39:50;4.90;;;4.47;;
14241;SDS011;7205;50.864;12.766;2023-09-07T05:42:17;4.67;;;4.27;;
14241;SDS011;7205;50.864;12.766;2023-09-07T05:44:44;6.30;;;3.97;;
14241;SDS011;7205;50.864;12.766;2023-09-07T05:47:10;5.30;;;4.43;;
14241;SDS011;7205;50.864;12.766;2023-09-07T05:49:37;4.43;;;4.07;;
14241;SDS011;7205;50.864;12.766;2023-09-07T05:52:04;6.37;;;4.50;;
14241;SDS011;7205;50.864;12.766;2023-09-07T05:54:31;5.47;;;4.73;;
14241;SDS011;7205;50.864;12.766;2023-09-07T05:56:59;4.97;;;4.47;;
14241;SDS011;7205;50.864;12.766;2023-09-07T05:59:26;4.50;;;4.20;;
14241;SDS011;7205;50.864;12.766;2023-09-07T06:01:53;4.80;;;4.33;;
14241;SDS011;7205;50.864;12.766;2023-09-07T06:04:20;5.07;;;4.67;;
14241;SDS011;7205;50.864;12.766;2023-09-07T06:06:47;9.27;;;5.00;;
14241;SDS011;7205;50.864;12.766;2023-09-07T06:09:13;4.87;;;4.57;;
14241;SDS011;7205;50.864;12.766;2023-09-07T06:11:40;6.37;;;5.20;;
14241;SDS011;7205;50.864;12.766;2023-09-07T06:14:09;7.53;;;4.77;;
14241;SDS011;7205;50.864;12.766;2023-09-07T06:16:37;5.20;;;4.80;;
14241;SDS011;7205;50.864;12.766;2023-09-07T06:19:04;5.97;;;4.67;;
14241;SDS011;7205;50.864;12.766;2023-09-07T06:21:33;5.50;;;5.07;;
14241;SDS011;7205;50.864;12.766;2023-09-07T06:23:59;6.17;;;4.90;;
14241;SDS011;7205;50.864;12.766;2023-09-07T06:26:26;6.63;;;5.10;;
14241;SDS011;7205;50.864;12.766;2023-09-07T06:28:53;6.53;;;4.70;;
14241;SDS011;7205;50.864;12.766;2023-09-07T06:31:21;5.00;;;4.50;;
14241;SDS011;7205;50.864;12.766;2023-09-07T06:33:48;5.60;;;4.93;;
14241;SDS011;7205;50.864;12.766;2023-09-07T06:36:15;5.70;;;5.23;;
14241;SDS011;7205;50.864;12.766;2023-09-07T06:38:42;5.13;;;4.70;;
14241;SDS011;7205;50.864;12.766;2023-09-07T06:41:08;6.03;;;5.43;;
14241;SDS011;7205;50.864;12.766;2023-09-07T06:43:36;4.73;;;4.30;;
14241;SDS011;7205;50.864;12.766;2023-09-07T06:46:05;6.63;;;5.20;;
14241;SDS011;7205;50.864;12.766;2023-09-07T06:48:34;6.03;;;4.40;;
14241;SDS011;7205;50.864;12.766;2023-09-07T06:51:02;4.73;;;4.33;;
14241;SDS011;7205;50.864;12.766;2023-09-07T06:53:30;8.17;;;4.70;;
14241;SDS011;7205;50.864;12.766;2023-09-07T06:55:57;5.10;;;4.50;;
14241;SDS011;7205;50.864;12.766;2023-09-07T06:58:25;4.80;;;4.43;;
14241;SDS011;7205;50.864;12.766;2023-09-07T07:00:52;4.50;;;4.20;;
14241;SDS011;7205;50.864;12.766;2023-09-07T07:03:18;5.67;;;4.77;;
14241;SDS011;7205;50.864;12.766;2023-09-07T07:05:47;4.30;;;4.00;;
14241;SDS011;7205;50.864;12.766;2023-09-07T07:08:14;5.00;;;4.60;;
14241;SDS011;7205;50.864;12.766;2023-09-07T07:10:40;4.30;;;3.90;;
14241;SDS011;7205;50.864;12.766;2023-09-07T07:13:08;4.30;;;3.90;;
14241;SDS011;7205;50.864;12.766;2023-09-07T07:15:35;4.80;;;4.23;;
14241;SDS011;7205;50.864;12.766;2023-09-07T07:18:02;5.33;;;4.87;;
14241;SDS011;7205;50.864;12.766;2023-09-07T07:20:34;6.00;;;4.30;;
14241;SDS011;7205;50.864;12.766;2023-09-07T07:23:02;4.50;;;4.10;;
14241;SDS011;7205;50.864;12.766;2023-09-07T07:25:29;6.87;;;3.93;;
14241;SDS011;7205;50.864;12.766;2023-09-07T07:27:58;5.43;;;3.67;;
14241;SDS011;7205;50.864;12.766;2023-09-07T07:30:26;5.00;;;3.87;;
14241;SDS011;7205;50.864;12.766;2023-09-07T07:32:54;3.97;;;3.67;;
14241;SDS011;7205;50.864;12.766;2023-09-07T07:35:21;4.30;;;3.90;;
14241;SDS011;7205;50.864;12.766;2023-09-07T07:37:49;4.00;;;3.60;;
14241;SDS011;7205;50.864;12.766;2023-09-07T07:40:17;3.90;;;3.60;;
14241;SDS011;7205;50.864;12.766;2023-09-07T07:42:44;3.87;;;3.57;;
14241;SDS011;7205;50.864;12.766;2023-09-07T07:45:13;4.27;;;3.97;;
14241;SDS011;7205;50.864;12.766;2023-09-07T07:47:40;4.67;;;4.23;;
14241;SDS011;7205;50.864;12.766;2023-09-07T07:50:07;4.07;;;3.50;;
14241;SDS011;7205;50.864;12.766;2023-09-07T07:52:35;4.17;;;3.77;;
14241;SDS011;7205;50.864;12.766;2023-09-07T07:55:02;4.10;;;3.77;;
14241;SDS011;7205;50.864;12.766;2023-09-07T07:57:31;4.47;;;3.60;;
14241;SDS011;7205;50.864;12.766;2023-09-07T07:59:58;4.37;;;4.00;;
14241;SDS011;7205;50.864;12.766;2023-09-07T08:02:26;4.37;;;3.97;;
14241;SDS011;7205;50.864;12.766;2023-09-07T08:04:53;4.50;;;3.37;;
14241;SDS011;7205;50.864;12.766;2023-09-07T08:07:20;5.90;;;3.57;;
14241;SDS011;7205;50.864;12.766;2023-09-07T08:09:47;4.67;;;3.70;;
14241;SDS011;7205;50.864;12.766;2023-09-07T08:12:16;6.67;;;3.70;;
14241;SDS011;7205;50.864;12.766;2023-09-07T08:14:44;4.20;;;3.80;;
14241;SDS011;7205;50.864;12.766;2023-09-07T08:17:11;3.87;;;3.60;;
14241;SDS011;7205;50.864;12.766;2023-09-07T08:19:38;4.13;;;3.77;;
14241;SDS011;7205;50.864;12.766;2023-09-07T08:22:05;3.70;;;3.50;;
14241;SDS011;7205;50.864;12.766;2023-09-07T08:24:34;5.77;;;3.80;;
14241;SDS011;7205;50.864;12.766;2023-09-07T08:27:01;4.50;;;3.60;;
14241;SDS011;7205;50.864;12.766;2023-09-07T08:29:29;3.93;;;3.40;;
14241;SDS011;7205;50.864;12.766;2023-09-07T08:31:59;3.97;;;3.53;;
14241;SDS011;7205;50.864;12.766;2023-09-07T08:34:29;3.80;;;3.60;;
14241;SDS011;7205;50.864;12.766;2023-09-07T08:36:56;3.90;;;3.50;;
14241;SDS011;7205;50.864;12.766;2023-09-07T08:39:24;3.70;;;3.47;;
14241;SDS011;7205;50.864;12.766;2023-09-07T08:41:51;3.90;;;3.60;;
14241;SDS011;7205;50.864;12.766;2023-09-07T08:44:18;3.50;;;3.20;;
14241;SDS011;7205;50.864;12.766;2023-09-07T08:46:46;5.50;;;3.10;;
14241;SDS011;7205;50.864;12.766;2023-09-07T08:49:17;3.50;;;3.30;;
14241;SDS011;7205;50.864;12.766;2023-09-07T08:51:44;3.87;;;3.37;;
14241;SDS011;7205;50.864;12.766;2023-09-07T08:54:11;3.80;;;3.43;;
14241;SDS011;7205;50.864;12.766;2023-09-07T08:56:38;4.38;;;3.38;;
14241;SDS011;7205;50.864;12.766;2023-09-07T08:59:05;3.40;;;3.10;;
14241;SDS011;7205;50.864;12.766;2023-09-07T09:01:32;6.10;;;3.30;;
14241;SDS011;7205;50.864;12.766;2023-09-07T09:03:59;3.60;;;3.30;;
14241;SDS011;7205;50.864;12.766;2023-09-07T09:06:27;3.88;;;3.58;;
14241;SDS011;7205;50.864;12.766;2023-09-07T09:08:55;3.42;;;3.15;;
14241;SDS011;7205;50.864;12.766;2023-09-07T09:11:22;3.25;;;3.05;;
14241;SDS011;7205;50.864;12.766;2023-09-07T09:13:51;7.40;;;3.33;;
14241;SDS011;7205;50.864;12.766;2023-09-07T09:16:19;3.63;;;3.15;;
14241;SDS011;7205;50.864;12.766;2023-09-07T09:18:49;3.13;;;2.92;;
14241;SDS011;7205;50.864;12.766;2023-09-07T09:21:18;3.20;;;3.00;;
14241;SDS011;7205;50.864;12.766;2023-09-07T09:23:48;4.55;;;3.50;;
14241;SDS011;7205;50.864;12.766;2023-09-07T09:26:17;4.43;;;3.03;;
14241;SDS011;7205;50.864;12.766;2023-09-07T09:28:44;2.90;;;2.67;;
14241;SDS011;7205;50.864;12.766;2023-09-07T09:31:11;3.10;;;2.63;;
14241;SDS011;7205;50.864;12.766;2023-09-07T09:33:38;3.22;;;2.95;;
14241;SDS011;7205;50.864;12.766;2023-09-07T09:36:06;3.72;;;3.05;;
14241;SDS011;7205;50.864;12.766;2023-09-07T09:38:33;3.42;;;2.95;;
14241;SDS011;7205;50.864;12.766;2023-09-07T09:41:03;6.40;;;2.80;;
14241;SDS011;7205;50.864;12.766;2023-09-07T09:43:30;2.67;;;2.55;;
14241;SDS011;7205;50.864;12.766;2023-09-07T09:45:57;3.88;;;2.70;;
14241;SDS011;7205;50.864;12.766;2023-09-07T09:48:27;3.35;;;2.70;;
14241;SDS011;7205;50.864;12.766;2023-09-07T09:50:54;2.83;;;2.58;;
14241;SDS011;7205;50.864;12.766;2023-09-07T09:53:22;3.30;;;2.60;;
14241;SDS011;7205;50.864;12.766;2023-09-07T09:55:51;2.85;;;2.63;;
14241;SDS011;7205;50.864;12.766;2023-09-07T09:58:20;3.33;;;2.67;;
14241;SDS011;7205;50.864;12.766;2023-09-07T10:00:48;2.83;;;2.63;;
14241;SDS011;7205;50.864;12.766;2023-09-07T10:03:17;2.60;;;2.50;;
14241;SDS011;7205;50.864;12.766;2023-09-07T10:05:51;4.10;;;2.40;;
14241;SDS011;7205;50.864;12.766;2023-09-07T10:08:19;2.78;;;2.67;;
14241;SDS011;7205;50.864;12.766;2023-09-07T10:10:48;3.65;;;2.10;;
14241;SDS011;7205;50.864;12.766;2023-09-07T10:13:17;2.58;;;2.38;;
14241;SDS011;7205;50.864;12.766;2023-09-07T10:16:00;3.90;;;2.88;;
14241;SDS011;7205;50.864;12.766;2023-09-07T10:18:32;2.53;;;2.42;;
14241;SDS011;7205;50.864;12.766;2023-09-07T10:21:01;3.33;;;2.15;;
14241;SDS011;7205;50.864;12.766;2023-09-07T10:23:35;2.50;;;2.40;;
14241;SDS011;7205;50.864;12.766;2023-09-07T10:26:03;2.75;;;2.50;;
14241;SDS011;7205;50.864;12.766;2023-09-07T10:28:32;4.50;;;2.38;;
14241;SDS011;7205;50.864;12.766;2023-09-07T10:31:00;3.45;;;2.70;;
14241;SDS011;7205;50.864;12.766;2023-09-07T10:33:28;2.40;;;2.25;;
14241;SDS011;7205;50.864;12.766;2023-09-07T10:35:57;3.25;;;2.53;;
14241;SDS011;7205;50.864;12.766;2023-09-07T10:38:24;2.40;;;2.30;;
14241;SDS011;7205;50.864;12.766;2023-09-07T10:40:54;2.45;;;2.10;;
14241;SDS011;7205;50.864;12.766;2023-09-07T10:43:24;2.97;;;2.40;;
14241;SDS011;7205;50.864;12.766;2023-09-07T10:45:52;2.08;;;1.90;;
14241;SDS011;7205;50.864;12.766;2023-09-07T10:48:19;3.75;;;2.35;;
14241;SDS011;7205;50.864;12.766;2023-09-07T10:50:46;3.72;;;1.90;;
14241;SDS011;7205;50.864;12.766;2023-09-07T10:53:14;2.30;;;2.20;;
14241;SDS011;7205;50.864;12.766;2023-09-07T10:55:41;2.60;;;2.40;;
14241;SDS011;7205;50.864;12.766;2023-09-07T10:58:09;2.67;;;2.47;;
14241;SDS011;7205;50.864;12.766;2023-09-07T11:00:36;2.75;;;2.55;;
14241;SDS011;7205;50.864;12.766;2023-09-07T11:03:09;2.25;;;2.08;;
14241;SDS011;7205;50.864;12.766;2023-09-07T11:05:36;3.05;;;2.15;;
14241;SDS011;7205;50.864;12.766;2023-09-07T11:08:05;2.63;;;2.42;;
14241;SDS011;7205;50.864;12.766;2023-09-07T11:10:33;4.20;;;2.70;;
14241;SDS011;7205;50.864;12.766;2023-09-07T11:13:01;2.25;;;2.15;;
14241;SDS011;7205;50.864;12.766;2023-09-07T11:15:29;2.58;;;2.38;;
14241;SDS011;7205;50.864;12.766;2023-09-07T11:17:57;4.82;;;2.22;;
14241;SDS011;7205;50.864;12.766;2023-09-07T11:20:25;2.83;;;2.30;;
14241;SDS011;7205;50.864;12.766;2023-09-07T11:22:52;2.30;;;2.10;;
14241;SDS011;7205;50.864;12.766;2023-09-07T11:25:20;2.92;;;1.90;;
14241;SDS011;7205;50.864;12.766;2023-09-07T11:27:47;3.15;;;2.03;;
14241;SDS011;7205;50.864;12.766;2023-09-07T11:30:13;2.58;;;2.38;;
14241;SDS011;7205;50.864;12.766;2023-09-07T11:32:40;4.13;;;2.10;;
14241;SDS011;7205;50.864;12.766;2023-09-07T11:35:08;2.08;;;1.98;;
14241;SDS011;7205;50.864;12.766;2023-09-07T11:37:37;4.00;;;2.70;;
14241;SDS011;7205;50.864;12.766;2023-09-07T11:40:05;2.70;;;2.50;;
14241;SDS011;7205;50.864;12.766;2023-09-07T11:42:37;2.08;;;1.98;;
14241;SDS011;7205;50.864;12.766;2023-09-07T11:45:05;3.75;;;2.97;;
14241;SDS011;7205;50.864;12.766;2023-09-07T11:47:34;2.58;;;2.38;;
14241;SDS011;7205;50.864;12.766;2023-09-07T11:50:03;2.35;;;2.15;;
14241;SDS011;7205;50.864;12.766;2023-09-07T11:52:30;2.40;;;2.20;;
14241;SDS011;7205;50.864;12.766;2023-09-07T11:54:58;3.05;;;2.15;;
14241;SDS011;7205;50.864;12.766;2023-09-07T11:57:25;2.28;;;2.08;;
14241;SDS011;7205;50.864;12.766;2023-09-07T11:59:52;3.38;;;2.13;;
14241;SDS011;7205;50.864;12.766;2023-09-07T12:02:18;3.60;;;2.00;;
14241;SDS011;7205;50.864;12.766;2023-09-07T12:04:46;3.28;;;2.22;;
14241;SDS011;7205;50.864;12.766;2023-09-07T12:07:13;2.17;;;1.90;;
14241;SDS011;7205;50.864;12.766;2023-09-07T12:09:40;2.00;;;1.90;;
14241;SDS011;7205;50.864;12.766;2023-09-07T12:12:08;6.10;;;1.95;;
14241;SDS011;7205;50.864;12.766;2023-09-07T12:14:37;2.28;;;1.70;;
14241;SDS011;7205;50.864;12.766;2023-09-07T12:17:03;3.92;;;2.10;;
14241;SDS011;7205;50.864;12.766;2023-09-07T12:19:30;2.20;;;2.10;;
14241;SDS011;7205;50.864;12.766;2023-09-07T12:21:57;2.00;;;1.90;;
14241;SDS011;7205;50.864;12.766;2023-09-07T12:24:24;1.98;;;1.88;;
14241;SDS011;7205;50.864;12.766;2023-09-07T12:26:50;2.03;;;1.92;;
14241;SDS011;7205;50.864;12.766;2023-09-07T12:29:18;2.15;;;2.05;;
14241;SDS011;7205;50.864;12.766;2023-09-07T12:31:45;2.30;;;2.10;;
14241;SDS011;7205;50.864;12.766;2023-09-07T12:34:12;3.10;;;1.80;;
14241;SDS011;7205;50.864;12.766;2023-09-07T12:36:39;1.92;;;1.80;;
14241;SDS011;7205;50.864;12.766;2023-09-07T12:39:06;1.90;;;1.80;;
14241;SDS011;7205;50.864;12.766;2023-09-07T12:41:33;1.77;;;1.67;;
14241;SDS011;7205;50.864;12.766;2023-09-07T12:43:59;4.63;;;1.90;;
14241;SDS011;7205;50.864;12.766;2023-09-07T12:46:28;1.77;;;1.67;;
14241;SDS011;7205;50.864;12.766;2023-09-07T12:48:54;2.10;;;2.00;;
14241;SDS011;7205;50.864;12.766;2023-09-07T12:51:21;1.65;;;1.55;;
14241;SDS011;7205;50.864;12.766;2023-09-07T12:53:48;3.70;;;1.65;;
14241;SDS011;7205;50.864;12.766;2023-09-07T12:56:14;3.13;;;1.80;;
14241;SDS011;7205;50.864;12.766;2023-09-07T12:58:43;2.40;;;2.20;;
14241;SDS011;7205;50.864;12.766;2023-09-07T13:01:10;4.22;;;2.10;;
14241;SDS011;7205;50.864;12.766;2023-09-07T13:03:41;2.63;;;1.60;;
14241;SDS011;7205;50.864;12.766;2023-09-07T13:06:08;2.55;;;1.83;;
14241;SDS011;7205;50.864;12.766;2023-09-07T13:08:35;2.25;;;1.92;;
14241;SDS011;7205;50.864;12.766;2023-09-07T13:11:02;1.70;;;1.60;;
14241;SDS011;7205;50.864;12.766;2023-09-07T13:13:29;2.05;;;1.88;;
14241;SDS011;7205;50.864;12.766;2023-09-07T13:15:55;1.92;;;1.83;;
14241;SDS011;7205;50.864;12.766;2023-09-07T13:18:23;2.55;;;2.00;;
14241;SDS011;7205;50.864;12.766;2023-09-07T13:20:51;1.90;;;1.80;;
14241;SDS011;7205;50.864;12.766;2023-09-07T13:23:20;3.70;;;1.98;;
14241;SDS011;7205;50.864;12.766;2023-09-07T13:25:47;3.88;;;2.20;;
14241;SDS011;7205;50.864;12.766;2023-09-07T13:28:14;4.95;;;2.10;;
14241;SDS011;7205;50.864;12.766;2023-09-07T13:30:40;2.97;;;1.92;;
14241;SDS011;7205;50.864;12.766;2023-09-07T13:33:07;2.25;;;1.85;;
14241;SDS011;7205;50.864;12.766;2023-09-07T13:35:34;1.85;;;1.75;;
14241;SDS011;7205;50.864;12.766;2023-09-07T13:38:02;2.53;;;2.30;;
14241;SDS011;7205;50.864;12.766;2023-09-07T13:40:29;2.08;;;1.98;;
14241;SDS011;7205;50.864;12.766;2023-09-07T13:42:56;2.53;;;2.40;;
14241;SDS011;7205;50.864;12.766;2023-09-07T13:45:22;2.60;;;2.38;;
14241;SDS011;7205;50.864;12.766;2023-09-07T13:47:49;2.50;;;2.15;;
14241;SDS011;7205;50.864;12.766;2023-09-07T13:50:16;2.70;;;2.50;;
14241;SDS011;7205;50.864;12.766;2023-09-07T13:52:43;2.83;;;2.28;;
14241;SDS011;7205;50.864;12.766;2023-09-07T13:55:11;2.28;;;2.17;;
14241;SDS011;7205;50.864;12.766;2023-09-07T13:57:38;2.72;;;1.88;;
14241;SDS011;7205;50.864;12.766;2023-09-07T14:00:05;4.57;;;2.13;;
14241;SDS011;7205;50.864;12.766;2023-09-07T14:02:32;3.72;;;2.55;;
14241;SDS011;7205;50.864;12.766;2023-09-07T14:04:59;2.40;;;2.30;;
14241;SDS011;7205;50.864;12.766;2023-09-07T14:07:26;4.95;;;2.33;;
14241;SDS011;7205;50.864;12.766;2023-09-07T14:09:53;2.30;;;2.20;;
14241;SDS011;7205;50.864;12.766;2023-09-07T14:12:22;2.17;;;1.90;;
14241;SDS011;7205;50.864;12.766;2023-09-07T14:14:49;3.65;;;2.50;;
14241;SDS011;7205;50.864;12.766;2023-09-07T14:17:16;3.00;;;2.20;;
14241;SDS011;7205;50.864;12.766;2023-09-07T14:19:43;3.45;;;2.20;;
14241;SDS011;7205;50.864;12.766;2023-09-07T14:22:10;2.10;;;2.00;;
14241;SDS011;7205;50.864;12.766;2023-09-07T14:24:37;5.80;;;2.45;;
14241;SDS011;7205;50.864;12.766;2023-09-07T14:27:04;4.47;;;2.33;;
14241;SDS011;7205;50.864;12.766;2023-09-07T14:29:32;3.40;;;2.40;;
14241;SDS011;7205;50.864;12.766;2023-09-07T14:32:00;3.72;;;2.45;;
14241;SDS011;7205;50.864;12.766;2023-09-07T14:34:27;4.05;;;2.53;;
14241;SDS011;7205;50.864;12.766;2023-09-07T14:36:53;2.60;;;2.40;;
14241;SDS011;7205;50.864;12.766;2023-09-07T14:39:20;2.80;;;2.58;;
14241;SDS011;7205;50.864;12.766;2023-09-07T14:41:49;4.18;;;2.40;;
14241;SDS011;7205;50.864;12.766;2023-09-07T14:44:18;3.90;;;2.65;;
14241;SDS011;7205;50.864;12.766;2023-09-07T14:49:35;2.38;;;2.00;;
14241;SDS011;7205;50.864;12.766;2023-09-07T14:52:02;3.75;;;2.70;;